首页
METAR-TAF:

METAR-TAF

机场 :

巴兰基亚, 哥伦比亚

纬度: 10-53N, 经度: 074-47W, 海拔: 14米

当前天气观测

该预报发布于55分钟前的02:00 UTC
风速6节,风向北转东北
温度 28°C
湿度 94%
气压 1011 hPa
能见度10公里或以上
多云层高于1200英尺
毛毛雨,

METAR: SKBQ 250200Z 03006KT 9999 DZ BKN012 28/27 Q1011 NOSIG

时间: 21:55 (02:55 UTC)

预报

该预报发布于4小时和25分钟前的22:30 UTC
预报有效从25日的 00点(UTC)到 25日的 24点(UTC)
风速5节,风向
能见度10公里或以上
少量云层高于1500英尺
短暂存在
从 25日的 19点(UTC)到 25日的 22点(UTC)
少量云层高于1500英尺, 积雨云.
雷暴, 雨,

TAF: SKBQ 242230Z 2500/2524 01005KT 9999 FEW015 TEMPO 2519/2522 TSRA FEW015CB TX33/2518Z TN26/2510Z

超过4000个机场的气象观测和天气预报(METAR&TAF报告)。

可查询的气象台以黄色和红色小点在地图上表示。

将鼠标移到小点上方,可查看气象台名称。

然后点击查看天气观测和预报。

如需切换地图:点击带黑十字的绿色按钮放大地图;点击带横线的绿色按钮缩小地图;或者点击绿色箭头查看邻近地区的地图。


METAR-TAF: